sensor_id;sensor_type;location;lat;lon;timestamp;P1;durP1;ratioP1;P2;durP2;ratioP2
44428;SDS011;30134;47.866;-4.222;2024-03-06T00:01:58;64.03;;;50.92;;
44428;SDS011;30134;47.866;-4.222;2024-03-06T00:04:44;59.65;;;47.85;;
44428;SDS011;30134;47.866;-4.222;2024-03-06T00:07:30;57.95;;;46.83;;
44428;SDS011;30134;47.866;-4.222;2024-03-06T00:10:17;60.72;;;45.78;;
44428;SDS011;30134;47.866;-4.222;2024-03-06T00:13:03;58.83;;;45.85;;
44428;SDS011;30134;47.866;-4.222;2024-03-06T00:15:50;55.42;;;43.83;;
44428;SDS011;30134;47.866;-4.222;2024-03-06T00:18:36;54.17;;;42.63;;
44428;SDS011;30134;47.866;-4.222;2024-03-06T00:21:22;52.30;;;43.00;;
44428;SDS011;30134;47.866;-4.222;2024-03-06T00:24:11;51.20;;;39.80;;
44428;SDS011;30134;47.866;-4.222;2024-03-06T00:26:58;49.95;;;39.78;;
44428;SDS011;30134;47.866;-4.222;2024-03-06T00:29:44;48.83;;;38.58;;
44428;SDS011;30134;47.866;-4.222;2024-03-06T00:32:30;44.42;;;37.00;;
44428;SDS011;30134;47.866;-4.222;2024-03-06T00:35:17;45.38;;;36.25;;
44428;SDS011;30134;47.866;-4.222;2024-03-06T00:38:04;45.55;;;36.85;;
44428;SDS011;30134;47.866;-4.222;2024-03-06T00:40:51;49.00;;;36.83;;
44428;SDS011;30134;47.866;-4.222;2024-03-06T00:43:38;44.20;;;36.00;;
44428;SDS011;30134;47.866;-4.222;2024-03-06T00:46:24;42.03;;;34.22;;
44428;SDS011;30134;47.866;-4.222;2024-03-06T00:49:10;40.13;;;32.92;;
44428;SDS011;30134;47.866;-4.222;2024-03-06T00:51:56;39.10;;;30.70;;
44428;SDS011;30134;47.866;-4.222;2024-03-06T00:54:49;39.30;;;30.92;;
44428;SDS011;30134;47.866;-4.222;2024-03-06T00:57:35;38.55;;;31.35;;
44428;SDS011;30134;47.866;-4.222;2024-03-06T01:00:21;37.28;;;30.10;;
44428;SDS011;30134;47.866;-4.222;2024-03-06T01:03:08;36.30;;;30.08;;
44428;SDS011;30134;47.866;-4.222;2024-03-06T01:05:54;37.08;;;29.98;;
44428;SDS011;30134;47.866;-4.222;2024-03-06T01:08:41;36.10;;;28.00;;
44428;SDS011;30134;47.866;-4.222;2024-03-06T01:11:27;34.95;;;28.00;;
44428;SDS011;30134;47.866;-4.222;2024-03-06T01:14:13;32.88;;;25.88;;
44428;SDS011;30134;47.866;-4.222;2024-03-06T01:17:00;31.67;;;25.95;;
44428;SDS011;30134;47.866;-4.222;2024-03-06T01:19:46;33.00;;;26.20;;
44428;SDS011;30134;47.866;-4.222;2024-03-06T01:22:35;28.83;;;23.70;;
44428;SDS011;30134;47.866;-4.222;2024-03-06T01:25:22;32.47;;;24.95;;
44428;SDS011;30134;47.866;-4.222;2024-03-06T01:28:08;29.10;;;24.20;;
44428;SDS011;30134;47.866;-4.222;2024-03-06T01:30:54;33.45;;;24.95;;
44428;SDS011;30134;47.866;-4.222;2024-03-06T01:33:40;31.08;;;23.00;;
44428;SDS011;30134;47.866;-4.222;2024-03-06T01:36:27;27.48;;;22.08;;
44428;SDS011;30134;47.866;-4.222;2024-03-06T01:39:13;28.98;;;22.67;;
44428;SDS011;30134;47.866;-4.222;2024-03-06T01:41:59;27.27;;;21.55;;
44428;SDS011;30134;47.866;-4.222;2024-03-06T01:44:46;24.80;;;19.65;;
44428;SDS011;30134;47.866;-4.222;2024-03-06T01:47:32;26.38;;;21.52;;
44428;SDS011;30134;47.866;-4.222;2024-03-06T01:50:19;26.80;;;19.80;;
44428;SDS011;30134;47.866;-4.222;2024-03-06T01:53:05;26.92;;;20.48;;
44428;SDS011;30134;47.866;-4.222;2024-03-06T01:55:51;25.50;;;18.90;;
44428;SDS011;30134;47.866;-4.222;2024-03-06T01:58:38;23.80;;;19.77;;
44428;SDS011;30134;47.866;-4.222;2024-03-06T02:01:25;24.33;;;18.58;;
44428;SDS011;30134;47.866;-4.222;2024-03-06T02:04:11;22.98;;;17.98;;
44428;SDS011;30134;47.866;-4.222;2024-03-06T02:06:58;25.08;;;18.33;;
44428;SDS011;30134;47.866;-4.222;2024-03-06T02:09:45;21.63;;;17.67;;
44428;SDS011;30134;47.866;-4.222;2024-03-06T02:12:31;23.95;;;17.30;;
44428;SDS011;30134;47.866;-4.222;2024-03-06T02:15:18;22.63;;;17.77;;
44428;SDS011;30134;47.866;-4.222;2024-03-06T02:18:05;19.90;;;15.43;;
44428;SDS011;30134;47.866;-4.222;2024-03-06T02:20:52;18.67;;;15.95;;
44428;SDS011;30134;47.866;-4.222;2024-03-06T02:23:38;20.05;;;15.93;;
44428;SDS011;30134;47.866;-4.222;2024-03-06T02:26:24;18.13;;;15.38;;
44428;SDS011;30134;47.866;-4.222;2024-03-06T02:29:10;18.00;;;14.75;;
44428;SDS011;30134;47.866;-4.222;2024-03-06T02:31:57;17.95;;;15.02;;
44428;SDS011;30134;47.866;-4.222;2024-03-06T02:34:43;17.90;;;14.60;;
44428;SDS011;30134;47.866;-4.222;2024-03-06T02:37:30;17.33;;;14.13;;
44428;SDS011;30134;47.866;-4.222;2024-03-06T02:40:17;17.80;;;14.38;;
44428;SDS011;30134;47.866;-4.222;2024-03-06T02:43:03;17.90;;;13.27;;
44428;SDS011;30134;47.866;-4.222;2024-03-06T02:45:50;17.67;;;14.23;;
44428;SDS011;30134;47.866;-4.222;2024-03-06T02:48:37;15.13;;;12.73;;
44428;SDS011;30134;47.866;-4.222;2024-03-06T02:51:23;14.85;;;12.52;;
44428;SDS011;30134;47.866;-4.222;2024-03-06T02:54:09;16.98;;;12.55;;
44428;SDS011;30134;47.866;-4.222;2024-03-06T02:56:56;15.30;;;12.30;;
44428;SDS011;30134;47.866;-4.222;2024-03-06T02:59:42;14.02;;;10.57;;
44428;SDS011;30134;47.866;-4.222;2024-03-06T03:02:28;16.50;;;12.52;;
44428;SDS011;30134;47.866;-4.222;2024-03-06T03:05:15;13.77;;;11.65;;
44428;SDS011;30134;47.866;-4.222;2024-03-06T03:08:01;13.57;;;11.02;;
44428;SDS011;30134;47.866;-4.222;2024-03-06T03:10:49;12.13;;;10.32;;
44428;SDS011;30134;47.866;-4.222;2024-03-06T03:13:36;14.07;;;10.98;;
44428;SDS011;30134;47.866;-4.222;2024-03-06T03:16:22;12.68;;;10.07;;
44428;SDS011;30134;47.866;-4.222;2024-03-06T03:19:09;15.38;;;10.18;;
44428;SDS011;30134;47.866;-4.222;2024-03-06T03:21:55;11.90;;;9.55;;
44428;SDS011;30134;47.866;-4.222;2024-03-06T03:24:41;13.35;;;10.13;;
44428;SDS011;30134;47.866;-4.222;2024-03-06T03:27:28;11.60;;;9.48;;
44428;SDS011;30134;47.866;-4.222;2024-03-06T03:30:14;13.77;;;9.88;;
44428;SDS011;30134;47.866;-4.222;2024-03-06T03:33:05;10.45;;;8.75;;
44428;SDS011;30134;47.866;-4.222;2024-03-06T03:35:52;12.48;;;9.45;;
44428;SDS011;30134;47.866;-4.222;2024-03-06T03:38:38;11.23;;;8.68;;
44428;SDS011;30134;47.866;-4.222;2024-03-06T03:41:27;11.90;;;8.82;;
44428;SDS011;30134;47.866;-4.222;2024-03-06T03:44:14;10.80;;;8.98;;
44428;SDS011;30134;47.866;-4.222;2024-03-06T03:47:04;9.10;;;7.90;;
44428;SDS011;30134;47.866;-4.222;2024-03-06T03:49:51;9.70;;;7.97;;
44428;SDS011;30134;47.866;-4.222;2024-03-06T03:52:37;8.90;;;8.00;;
44428;SDS011;30134;47.866;-4.222;2024-03-06T03:55:27;10.65;;;7.80;;
44428;SDS011;30134;47.866;-4.222;2024-03-06T03:58:13;9.95;;;7.70;;
44428;SDS011;30134;47.866;-4.222;2024-03-06T04:01:00;9.55;;;7.72;;
44428;SDS011;30134;47.866;-4.222;2024-03-06T04:03:46;9.90;;;7.97;;
44428;SDS011;30134;47.866;-4.222;2024-03-06T04:06:33;9.38;;;7.43;;
44428;SDS011;30134;47.866;-4.222;2024-03-06T04:09:20;8.73;;;7.13;;
44428;SDS011;30134;47.866;-4.222;2024-03-06T04:12:06;8.40;;;6.07;;
44428;SDS011;30134;47.866;-4.222;2024-03-06T04:14:52;7.78;;;6.70;;
44428;SDS011;30134;47.866;-4.222;2024-03-06T04:17:39;8.07;;;6.53;;
44428;SDS011;30134;47.866;-4.222;2024-03-06T04:20:26;9.18;;;7.07;;
44428;SDS011;30134;47.866;-4.222;2024-03-06T04:23:12;9.40;;;7.35;;
44428;SDS011;30134;47.866;-4.222;2024-03-06T04:26:02;7.75;;;6.72;;
44428;SDS011;30134;47.866;-4.222;2024-03-06T04:28:48;8.48;;;6.20;;
44428;SDS011;30134;47.866;-4.222;2024-03-06T04:31:35;7.22;;;6.18;;
44428;SDS011;30134;47.866;-4.222;2024-03-06T04:34:21;6.95;;;6.15;;
44428;SDS011;30134;47.866;-4.222;2024-03-06T04:37:08;6.97;;;5.65;;
44428;SDS011;30134;47.866;-4.222;2024-03-06T04:39:55;6.65;;;5.95;;
44428;SDS011;30134;47.866;-4.222;2024-03-06T04:42:41;6.57;;;5.95;;
44428;SDS011;30134;47.866;-4.222;2024-03-06T04:45:27;9.25;;;6.57;;
44428;SDS011;30134;47.866;-4.222;2024-03-06T04:48:14;6.82;;;5.45;;
44428;SDS011;30134;47.866;-4.222;2024-03-06T04:51:00;6.05;;;5.07;;
44428;SDS011;30134;47.866;-4.222;2024-03-06T04:53:47;6.25;;;5.10;;
44428;SDS011;30134;47.866;-4.222;2024-03-06T04:56:34;6.07;;;5.20;;
44428;SDS011;30134;47.866;-4.222;2024-03-06T04:59:20;6.25;;;4.93;;
44428;SDS011;30134;47.866;-4.222;2024-03-06T05:02:06;6.00;;;4.95;;
44428;SDS011;30134;47.866;-4.222;2024-03-06T05:04:54;6.35;;;5.40;;
44428;SDS011;30134;47.866;-4.222;2024-03-06T05:07:40;6.15;;;5.05;;
44428;SDS011;30134;47.866;-4.222;2024-03-06T05:10:27;8.02;;;4.50;;
44428;SDS011;30134;47.866;-4.222;2024-03-06T05:13:13;5.68;;;4.70;;
44428;SDS011;30134;47.866;-4.222;2024-03-06T05:15:59;6.63;;;4.78;;
44428;SDS011;30134;47.866;-4.222;2024-03-06T05:18:47;5.72;;;4.60;;
44428;SDS011;30134;47.866;-4.222;2024-03-06T05:21:33;5.82;;;4.80;;
44428;SDS011;30134;47.866;-4.222;2024-03-06T05:24:20;4.93;;;4.38;;
44428;SDS011;30134;47.866;-4.222;2024-03-06T05:27:07;5.85;;;4.38;;
44428;SDS011;30134;47.866;-4.222;2024-03-06T05:29:53;5.20;;;4.60;;
44428;SDS011;30134;47.866;-4.222;2024-03-06T05:32:40;5.32;;;4.30;;
44428;SDS011;30134;47.866;-4.222;2024-03-06T05:35:26;5.50;;;4.65;;
44428;SDS011;30134;47.866;-4.222;2024-03-06T05:38:13;5.60;;;3.97;;
44428;SDS011;30134;47.866;-4.222;2024-03-06T05:40:59;6.00;;;4.55;;
44428;SDS011;30134;47.866;-4.222;2024-03-06T05:43:46;4.65;;;3.80;;
44428;SDS011;30134;47.866;-4.222;2024-03-06T05:46:32;4.03;;;3.50;;
44428;SDS011;30134;47.866;-4.222;2024-03-06T05:49:19;4.20;;;3.65;;
44428;SDS011;30134;47.866;-4.222;2024-03-06T05:52:05;5.53;;;4.30;;
44428;SDS011;30134;47.866;-4.222;2024-03-06T05:54:51;4.82;;;3.90;;
44428;SDS011;30134;47.866;-4.222;2024-03-06T05:57:37;3.78;;;3.28;;
44428;SDS011;30134;47.866;-4.222;2024-03-06T06:00:24;4.13;;;3.50;;
44428;SDS011;30134;47.866;-4.222;2024-03-06T06:03:10;3.78;;;3.08;;
44428;SDS011;30134;47.866;-4.222;2024-03-06T06:05:57;5.28;;;3.80;;
44428;SDS011;30134;47.866;-4.222;2024-03-06T06:08:46;4.47;;;3.80;;
44428;SDS011;30134;47.866;-4.222;2024-03-06T06:11:33;3.50;;;3.17;;
44428;SDS011;30134;47.866;-4.222;2024-03-06T06:14:19;4.10;;;2.85;;
44428;SDS011;30134;47.866;-4.222;2024-03-06T06:17:05;4.47;;;3.28;;
44428;SDS011;30134;47.866;-4.222;2024-03-06T06:19:52;5.80;;;3.45;;
44428;SDS011;30134;47.866;-4.222;2024-03-06T06:22:38;3.53;;;3.15;;
44428;SDS011;30134;47.866;-4.222;2024-03-06T06:25:24;3.90;;;2.63;;
44428;SDS011;30134;47.866;-4.222;2024-03-06T06:28:10;4.25;;;3.33;;
44428;SDS011;30134;47.866;-4.222;2024-03-06T06:30:57;5.00;;;3.13;;
44428;SDS011;30134;47.866;-4.222;2024-03-06T06:33:43;3.47;;;2.72;;
44428;SDS011;30134;47.866;-4.222;2024-03-06T06:36:31;3.03;;;2.58;;
44428;SDS011;30134;47.866;-4.222;2024-03-06T06:39:17;3.80;;;2.50;;
44428;SDS011;30134;47.866;-4.222;2024-03-06T06:42:03;4.05;;;3.30;;
44428;SDS011;30134;47.866;-4.222;2024-03-06T06:44:49;3.13;;;2.65;;
44428;SDS011;30134;47.866;-4.222;2024-03-06T06:47:36;2.83;;;2.33;;
44428;SDS011;30134;47.866;-4.222;2024-03-06T06:50:22;3.40;;;2.97;;
44428;SDS011;30134;47.866;-4.222;2024-03-06T06:53:11;3.25;;;2.42;;
44428;SDS011;30134;47.866;-4.222;2024-03-06T06:55:57;2.90;;;2.47;;
44428;SDS011;30134;47.866;-4.222;2024-03-06T06:58:44;2.55;;;2.35;;
44428;SDS011;30134;47.866;-4.222;2024-03-06T07:01:31;2.92;;;2.35;;
44428;SDS011;30134;47.866;-4.222;2024-03-06T07:04:18;2.75;;;2.28;;
44428;SDS011;30134;47.866;-4.222;2024-03-06T07:07:05;3.83;;;2.42;;
44428;SDS011;30134;47.866;-4.222;2024-03-06T07:09:51;7.32;;;3.30;;
44428;SDS011;30134;47.866;-4.222;2024-03-06T07:12:38;7.57;;;3.42;;
44428;SDS011;30134;47.866;-4.222;2024-03-06T07:15:24;4.32;;;2.72;;
44428;SDS011;30134;47.866;-4.222;2024-03-06T07:18:10;5.78;;;2.88;;
44428;SDS011;30134;47.866;-4.222;2024-03-06T07:20:56;9.90;;;4.32;;
44428;SDS011;30134;47.866;-4.222;2024-03-06T07:23:43;62.45;;;44.40;;
44428;SDS011;30134;47.866;-4.222;2024-03-06T07:26:29;79.05;;;58.45;;
44428;SDS011;30134;47.866;-4.222;2024-03-06T07:29:19;137.13;;;107.30;;
44428;SDS011;30134;47.866;-4.222;2024-03-06T07:32:05;107.38;;;84.43;;
44428;SDS011;30134;47.866;-4.222;2024-03-06T07:34:52;92.97;;;72.30;;
44428;SDS011;30134;47.866;-4.222;2024-03-06T07:37:38;87.53;;;67.82;;
44428;SDS011;30134;47.866;-4.222;2024-03-06T07:40:25;81.38;;;63.47;;
44428;SDS011;30134;47.866;-4.222;2024-03-06T07:43:11;83.88;;;61.47;;
44428;SDS011;30134;47.866;-4.222;2024-03-06T07:45:58;73.95;;;59.15;;
44428;SDS011;30134;47.866;-4.222;2024-03-06T07:48:45;66.88;;;52.28;;
44428;SDS011;30134;47.866;-4.222;2024-03-06T07:51:38;73.88;;;55.45;;
44428;SDS011;30134;47.866;-4.222;2024-03-06T07:54:26;68.28;;;51.63;;
44428;SDS011;30134;47.866;-4.222;2024-03-06T07:57:12;62.88;;;48.60;;
44428;SDS011;30134;47.866;-4.222;2024-03-06T07:59:58;66.15;;;49.05;;
44428;SDS011;30134;47.866;-4.222;2024-03-06T08:02:45;61.78;;;47.58;;
44428;SDS011;30134;47.866;-4.222;2024-03-06T08:05:35;58.70;;;44.75;;
44428;SDS011;30134;47.866;-4.222;2024-03-06T08:08:22;51.42;;;40.85;;
44428;SDS011;30134;47.866;-4.222;2024-03-06T08:11:10;52.65;;;40.08;;
44428;SDS011;30134;47.866;-4.222;2024-03-06T08:13:57;50.65;;;39.83;;
44428;SDS011;30134;47.866;-4.222;2024-03-06T08:16:44;50.97;;;38.03;;
44428;SDS011;30134;47.866;-4.222;2024-03-06T08:19:31;45.25;;;35.58;;
44428;SDS011;30134;47.866;-4.222;2024-03-06T08:22:17;60.90;;;42.25;;
44428;SDS011;30134;47.866;-4.222;2024-03-06T08:25:07;92.25;;;67.85;;
44428;SDS011;30134;47.866;-4.222;2024-03-06T08:27:55;138.32;;;96.60;;
44428;SDS011;30134;47.866;-4.222;2024-03-06T08:30:42;144.50;;;100.72;;
44428;SDS011;30134;47.866;-4.222;2024-03-06T08:33:29;146.93;;;105.32;;
44428;SDS011;30134;47.866;-4.222;2024-03-06T08:36:15;160.18;;;103.88;;
44428;SDS011;30134;47.866;-4.222;2024-03-06T08:39:02;142.25;;;104.07;;
44428;SDS011;30134;47.866;-4.222;2024-03-06T08:41:48;143.65;;;102.30;;
44428;SDS011;30134;47.866;-4.222;2024-03-06T08:44:34;138.27;;;97.75;;
44428;SDS011;30134;47.866;-4.222;2024-03-06T08:47:21;125.68;;;92.10;;
44428;SDS011;30134;47.866;-4.222;2024-03-06T08:50:07;119.28;;;85.40;;
44428;SDS011;30134;47.866;-4.222;2024-03-06T08:52:54;109.90;;;82.63;;
44428;SDS011;30134;47.866;-4.222;2024-03-06T08:55:42;112.03;;;81.78;;
44428;SDS011;30134;47.866;-4.222;2024-03-06T08:58:28;110.53;;;77.50;;
44428;SDS011;30134;47.866;-4.222;2024-03-06T09:01:15;103.15;;;76.53;;
44428;SDS011;30134;47.866;-4.222;2024-03-06T09:04:01;103.03;;;77.82;;
44428;SDS011;30134;47.866;-4.222;2024-03-06T09:06:47;94.32;;;69.18;;
44428;SDS011;30134;47.866;-4.222;2024-03-06T09:09:37;95.47;;;69.10;;
44428;SDS011;30134;47.866;-4.222;2024-03-06T09:12:23;97.32;;;66.95;;
44428;SDS011;30134;47.866;-4.222;2024-03-06T09:15:09;93.68;;;61.88;;
44428;SDS011;30134;47.866;-4.222;2024-03-06T09:17:57;85.10;;;57.85;;
44428;SDS011;30134;47.866;-4.222;2024-03-06T09:20:43;79.95;;;54.08;;
44428;SDS011;30134;47.866;-4.222;2024-03-06T09:23:29;77.35;;;48.38;;
44428;SDS011;30134;47.866;-4.222;2024-03-06T09:26:16;70.75;;;44.33;;
44428;SDS011;30134;47.866;-4.222;2024-03-06T09:29:02;60.38;;;40.00;;
44428;SDS011;30134;47.866;-4.222;2024-03-06T09:31:49;55.13;;;35.25;;
44428;SDS011;30134;47.866;-4.222;2024-03-06T09:34:35;57.90;;;34.20;;
44428;SDS011;30134;47.866;-4.222;2024-03-06T09:37:22;52.75;;;29.55;;
44428;SDS011;30134;47.866;-4.222;2024-03-06T09:40:22;41.58;;;27.45;;
44428;SDS011;30134;47.866;-4.222;2024-03-06T09:43:09;36.85;;;26.60;;
44428;SDS011;30134;47.866;-4.222;2024-03-06T09:45:55;33.15;;;23.73;;
44428;SDS011;30134;47.866;-4.222;2024-03-06T09:48:46;39.47;;;22.63;;
44428;SDS011;30134;47.866;-4.222;2024-03-06T09:51:44;33.40;;;21.35;;
44428;SDS011;30134;47.866;-4.222;2024-03-06T09:54:38;29.20;;;20.48;;
44428;SDS011;30134;47.866;-4.222;2024-03-06T09:57:26;37.08;;;19.80;;
44428;SDS011;30134;47.866;-4.222;2024-03-06T10:00:12;29.17;;;18.13;;
44428;SDS011;30134;47.866;-4.222;2024-03-06T10:02:58;23.20;;;15.98;;
44428;SDS011;30134;47.866;-4.222;2024-03-06T10:05:50;19.45;;;15.07;;
44428;SDS011;30134;47.866;-4.222;2024-03-06T10:08:41;21.67;;;15.45;;
44428;SDS011;30134;47.866;-4.222;2024-03-06T10:11:29;22.10;;;15.18;;
44428;SDS011;30134;47.866;-4.222;2024-03-06T10:14:17;22.88;;;13.85;;
44428;SDS011;30134;47.866;-4.222;2024-03-06T10:17:04;25.67;;;14.85;;
44428;SDS011;30134;47.866;-4.222;2024-03-06T10:19:50;27.42;;;15.82;;
44428;SDS011;30134;47.866;-4.222;2024-03-06T10:22:37;32.15;;;19.38;;
44428;SDS011;30134;47.866;-4.222;2024-03-06T10:25:25;41.17;;;23.63;;
44428;SDS011;30134;47.866;-4.222;2024-03-06T10:28:12;41.80;;;24.02;;
44428;SDS011;30134;47.866;-4.222;2024-03-06T10:31:04;37.35;;;23.60;;
44428;SDS011;30134;47.866;-4.222;2024-03-06T10:33:54;35.72;;;23.45;;
44428;SDS011;30134;47.866;-4.222;2024-03-06T10:36:41;39.10;;;23.52;;
44428;SDS011;30134;47.866;-4.222;2024-03-06T10:39:29;34.35;;;22.83;;
44428;SDS011;30134;47.866;-4.222;2024-03-06T10:42:19;35.03;;;21.77;;
44428;SDS011;30134;47.866;-4.222;2024-03-06T10:45:08;32.30;;;21.75;;
44428;SDS011;30134;47.866;-4.222;2024-03-06T10:47:59;31.90;;;20.70;;
44428;SDS011;30134;47.866;-4.222;2024-03-06T10:50:48;26.55;;;20.13;;
44428;SDS011;30134;47.866;-4.222;2024-03-06T10:53:35;25.15;;;19.40;;
44428;SDS011;30134;47.866;-4.222;2024-03-06T10:56:23;23.65;;;18.10;;
44428;SDS011;30134;47.866;-4.222;2024-03-06T10:59:10;28.83;;;19.75;;
44428;SDS011;30134;47.866;-4.222;2024-03-06T11:02:00;24.35;;;17.38;;
44428;SDS011;30134;47.866;-4.222;2024-03-06T11:04:46;23.63;;;17.75;;
44428;SDS011;30134;47.866;-4.222;2024-03-06T11:07:33;23.42;;;16.75;;
44428;SDS011;30134;47.866;-4.222;2024-03-06T11:10:29;22.95;;;17.13;;
44428;SDS011;30134;47.866;-4.222;2024-03-06T11:16:06;23.17;;;16.15;;
44428;SDS011;30134;47.866;-4.222;2024-03-06T11:19:04;21.75;;;15.95;;
44428;SDS011;30134;47.866;-4.222;2024-03-06T11:21:54;21.02;;;14.93;;
44428;SDS011;30134;47.866;-4.222;2024-03-06T11:24:40;21.42;;;15.18;;
44428;SDS011;30134;47.866;-4.222;2024-03-06T11:27:27;19.35;;;14.65;;
44428;SDS011;30134;47.866;-4.222;2024-03-06T11:30:18;22.80;;;14.57;;
44428;SDS011;30134;47.866;-4.222;2024-03-06T11:33:06;17.70;;;13.18;;
44428;SDS011;30134;47.866;-4.222;2024-03-06T11:39:18;19.85;;;12.60;;
44428;SDS011;30134;47.866;-4.222;2024-03-06T11:42:05;17.10;;;12.80;;
44428;SDS011;30134;47.866;-4.222;2024-03-06T11:45:11;26.25;;;18.10;;
44428;SDS011;30134;47.866;-4.222;2024-03-06T11:48:01;27.38;;;19.55;;
44428;SDS011;30134;47.866;-4.222;2024-03-06T11:50:48;25.35;;;20.08;;
44428;SDS011;30134;47.866;-4.222;2024-03-06T11:53:36;25.88;;;19.63;;
44428;SDS011;30134;47.866;-4.222;2024-03-06T11:56:24;25.08;;;19.20;;
44428;SDS011;30134;47.866;-4.222;2024-03-06T11:59:11;25.00;;;19.42;;
44428;SDS011;30134;47.866;-4.222;2024-03-06T12:02:01;21.27;;;17.90;;
44428;SDS011;30134;47.866;-4.222;2024-03-06T12:04:52;23.85;;;18.92;;
44428;SDS011;30134;47.866;-4.222;2024-03-06T12:07:49;24.88;;;19.30;;
44428;SDS011;30134;47.866;-4.222;2024-03-06T12:10:36;26.20;;;20.65;;
44428;SDS011;30134;47.866;-4.222;2024-03-06T12:13:23;40.67;;;26.35;;
44428;SDS011;30134;47.866;-4.222;2024-03-06T12:16:10;43.90;;;25.35;;
44428;SDS011;30134;47.866;-4.222;2024-03-06T12:18:59;34.42;;;24.00;;
44428;SDS011;30134;47.866;-4.222;2024-03-06T12:21:47;34.75;;;20.83;;
44428;SDS011;30134;47.866;-4.222;2024-03-06T12:24:33;28.60;;;19.35;;
44428;SDS011;30134;47.866;-4.222;2024-03-06T12:27:22;24.95;;;18.65;;
44428;SDS011;30134;47.866;-4.222;2024-03-06T12:30:09;23.70;;;16.83;;
44428;SDS011;30134;47.866;-4.222;2024-03-06T12:33:01;36.88;;;18.42;;
44428;SDS011;30134;47.866;-4.222;2024-03-06T12:35:59;33.03;;;20.80;;
44428;SDS011;30134;47.866;-4.222;2024-03-06T12:38:55;34.60;;;19.45;;
44428;SDS011;30134;47.866;-4.222;2024-03-06T12:41:46;41.58;;;18.70;;
44428;SDS011;30134;47.866;-4.222;2024-03-06T12:44:33;57.08;;;19.02;;
44428;SDS011;30134;47.866;-4.222;2024-03-06T12:47:19;37.00;;;18.23;;
44428;SDS011;30134;47.866;-4.222;2024-03-06T12:50:06;36.55;;;17.50;;
44428;SDS011;30134;47.866;-4.222;2024-03-06T12:52:53;37.92;;;17.63;;
44428;SDS011;30134;47.866;-4.222;2024-03-06T12:55:40;32.10;;;16.30;;
44428;SDS011;30134;47.866;-4.222;2024-03-06T12:58:28;37.53;;;16.30;;
44428;SDS011;30134;47.866;-4.222;2024-03-06T13:01:16;35.42;;;15.30;;
44428;SDS011;30134;47.866;-4.222;2024-03-06T13:04:03;50.35;;;35.85;;
44428;SDS011;30134;47.866;-4.222;2024-03-06T13:06:51;69.50;;;50.60;;
44428;SDS011;30134;47.866;-4.222;2024-03-06T13:09:37;77.72;;;43.85;;
44428;SDS011;30134;47.866;-4.222;2024-03-06T13:12:24;56.10;;;40.60;;
44428;SDS011;30134;47.866;-4.222;2024-03-06T13:15:11;55.05;;;36.92;;
44428;SDS011;30134;47.866;-4.222;2024-03-06T13:17:57;45.25;;;34.35;;
44428;SDS011;30134;47.866;-4.222;2024-03-06T13:20:44;49.03;;;32.15;;
44428;SDS011;30134;47.866;-4.222;2024-03-06T13:23:31;41.70;;;30.38;;
44428;SDS011;30134;47.866;-4.222;2024-03-06T13:26:17;38.47;;;28.15;;
44428;SDS011;30134;47.866;-4.222;2024-03-06T13:29:04;41.55;;;26.45;;
44428;SDS011;30134;47.866;-4.222;2024-03-06T13:31:51;40.25;;;25.70;;
44428;SDS011;30134;47.866;-4.222;2024-03-06T13:34:38;34.58;;;24.42;;
44428;SDS011;30134;47.866;-4.222;2024-03-06T13:37:24;33.83;;;23.55;;
44428;SDS011;30134;47.866;-4.222;2024-03-06T13:40:11;29.15;;;22.92;;
44428;SDS011;30134;47.866;-4.222;2024-03-06T13:42:58;34.45;;;22.45;;
44428;SDS011;30134;47.866;-4.222;2024-03-06T13:45:51;28.42;;;21.02;;
44428;SDS011;30134;47.866;-4.222;2024-03-06T13:48:37;29.13;;;20.88;;
44428;SDS011;30134;47.866;-4.222;2024-03-06T13:51:24;27.80;;;20.67;;
44428;SDS011;30134;47.866;-4.222;2024-03-06T13:54:11;28.88;;;20.05;;
44428;SDS011;30134;47.866;-4.222;2024-03-06T13:57:03;27.45;;;20.02;;
44428;SDS011;30134;47.866;-4.222;2024-03-06T13:59:51;28.77;;;19.73;;
44428;SDS011;30134;47.866;-4.222;2024-03-06T14:02:37;28.48;;;20.23;;
44428;SDS011;30134;47.866;-4.222;2024-03-06T14:05:25;26.90;;;18.70;;
44428;SDS011;30134;47.866;-4.222;2024-03-06T14:08:11;25.95;;;18.77;;
44428;SDS011;30134;47.866;-4.222;2024-03-06T14:10:58;26.25;;;18.55;;
44428;SDS011;30134;47.866;-4.222;2024-03-06T14:13:45;28.83;;;17.38;;
44428;SDS011;30134;47.866;-4.222;2024-03-06T14:16:31;24.60;;;16.08;;
44428;SDS011;30134;47.866;-4.222;2024-03-06T14:19:18;22.27;;;16.35;;
44428;SDS011;30134;47.866;-4.222;2024-03-06T14:22:07;23.02;;;16.33;;
44428;SDS011;30134;47.866;-4.222;2024-03-06T14:24:54;28.65;;;17.30;;
44428;SDS011;30134;47.866;-4.222;2024-03-06T14:27:41;29.30;;;16.10;;
44428;SDS011;30134;47.866;-4.222;2024-03-06T14:30:28;22.83;;;15.15;;
44428;SDS011;30134;47.866;-4.222;2024-03-06T14:33:15;20.02;;;15.23;;
44428;SDS011;30134;47.866;-4.222;2024-03-06T14:36:01;21.50;;;15.57;;
44428;SDS011;30134;47.866;-4.222;2024-03-06T14:38:48;25.58;;;15.15;;
44428;SDS011;30134;47.866;-4.222;2024-03-06T14:41:35;19.75;;;13.35;;
44428;SDS011;30134;47.866;-4.222;2024-03-06T14:44:22;26.15;;;14.10;;
44428;SDS011;30134;47.866;-4.222;2024-03-06T14:47:08;23.25;;;13.80;;
44428;SDS011;30134;47.866;-4.222;2024-03-06T14:49:55;21.10;;;12.88;;
44428;SDS011;30134;47.866;-4.222;2024-03-06T14:52:42;21.75;;;13.40;;
44428;SDS011;30134;47.866;-4.222;2024-03-06T14:55:29;16.73;;;11.20;;
44428;SDS011;30134;47.866;-4.222;2024-03-06T14:58:16;19.65;;;11.60;;
44428;SDS011;30134;47.866;-4.222;2024-03-06T15:01:02;15.15;;;11.43;;
44428;SDS011;30134;47.866;-4.222;2024-03-06T15:03:49;18.27;;;11.88;;
44428;SDS011;30134;47.866;-4.222;2024-03-06T15:06:39;18.92;;;11.55;;
44428;SDS011;30134;47.866;-4.222;2024-03-06T15:09:40;16.85;;;11.00;;
44428;SDS011;30134;47.866;-4.222;2024-03-06T15:12:34;16.70;;;11.32;;
44428;SDS011;30134;47.866;-4.222;2024-03-06T15:15:23;17.13;;;9.40;;
44428;SDS011;30134;47.866;-4.222;2024-03-06T15:18:10;14.00;;;9.98;;
44428;SDS011;30134;47.866;-4.222;2024-03-06T15:20:57;19.17;;;10.27;;
44428;SDS011;30134;47.866;-4.222;2024-03-06T15:23:44;15.07;;;10.10;;
44428;SDS011;30134;47.866;-4.222;2024-03-06T15:26:30;15.60;;;10.45;;
44428;SDS011;30134;47.866;-4.222;2024-03-06T15:29:17;13.73;;;9.68;;
44428;SDS011;30134;47.866;-4.222;2024-03-06T15:32:04;15.27;;;9.65;;
44428;SDS011;30134;47.866;-4.222;2024-03-06T15:34:51;16.83;;;9.75;;
44428;SDS011;30134;47.866;-4.222;2024-03-06T15:37:41;15.95;;;9.63;;
44428;SDS011;30134;47.866;-4.222;2024-03-06T15:40:28;19.27;;;9.57;;
44428;SDS011;30134;47.866;-4.222;2024-03-06T15:43:14;17.00;;;9.40;;
44428;SDS011;30134;47.866;-4.222;2024-03-06T15:46:04;13.45;;;8.63;;
44428;SDS011;30134;47.866;-4.222;2024-03-06T15:48:51;14.23;;;8.88;;
44428;SDS011;30134;47.866;-4.222;2024-03-06T15:51:38;16.73;;;8.93;;
44428;SDS011;30134;47.866;-4.222;2024-03-06T15:54:25;13.02;;;8.70;;
44428;SDS011;30134;47.866;-4.222;2024-03-06T15:57:11;15.55;;;8.98;;
44428;SDS011;30134;47.866;-4.222;2024-03-06T16:00:04;12.43;;;8.15;;
44428;SDS011;30134;47.866;-4.222;2024-03-06T16:02:58;11.13;;;8.00;;
44428;SDS011;30134;47.866;-4.222;2024-03-06T16:05:45;13.25;;;7.57;;
44428;SDS011;30134;47.866;-4.222;2024-03-06T16:08:32;12.48;;;7.20;;
44428;SDS011;30134;47.866;-4.222;2024-03-06T16:11:19;10.95;;;6.93;;
44428;SDS011;30134;47.866;-4.222;2024-03-06T16:14:06;12.38;;;6.65;;
44428;SDS011;30134;47.866;-4.222;2024-03-06T16:16:52;11.15;;;7.25;;